Time,TemperatureF,DewpointF,PressureIn,WindDirection,WindDirectionDegrees,WindSpeedMPH,WindSpeedGustMPH,Humidity,HourlyPrecipIn,Conditions,Clouds,dailyrainin,SoftwareType,DateUTC
2013-03-07 00:05:00,38.3,30.0,30.08,NW,316,9.0,-999.0,72,-99.99,,,0.00,weatherlink.com 1.10,2013-03-07 05:05:00,
2013-03-07 00:20:00,38.2,30.0,30.09,NW,319,6.0,-999.0,72,-99.99,,,0.00,weatherlink.com 1.10,2013-03-07 05:20:00,
2013-03-07 00:35:00,38.0,29.0,30.09,NNW,333,7.0,-999.0,71,-99.99,,,0.00,weatherlink.com 1.10,2013-03-07 05:35:00,
2013-03-07 00:50:00,38.1,29.0,30.09,NW,309,8.0,-999.0,71,-99.99,,,0.00,weatherlink.com 1.10,2013-03-07 05:50:00,
2013-03-07 01:05:00,38.4,29.0,30.09,NNW,337,10.0,-999.0,69,-99.99,,,0.01,weatherlink.com 1.10,2013-03-07 06:05:00,
2013-03-07 01:20:00,38.5,29.0,30.10,NNW,340,7.0,-999.0,69,-99.99,,,0.01,weatherlink.com 1.10,2013-03-07 06:20:00,
2013-03-07 01:35:00,38.4,29.0,30.10,NNW,342,10.0,-999.0,68,-99.99,,,0.01,weatherlink.com 1.10,2013-03-07 06:35:00,
2013-03-07 01:50:00,38.2,29.0,30.10,NNW,339,8.0,-999.0,69,-99.99,,,0.01,weatherlink.com 1.10,2013-03-07 06:50:00,
2013-03-07 02:05:00,38.3,29.0,30.10,NNW,334,7.0,-999.0,69,-99.99,,,0.01,weatherlink.com 1.10,2013-03-07 07:05:00,
2013-03-07 02:20:00,37.8,29.0,30.10,NNW,335,4.0,-999.0,70,-99.99,,,0.01,weatherlink.com 1.10,2013-03-07 07:20:00,
2013-03-07 02:35:00,37.4,29.0,30.09,NNW,335,0.0,-999.0,72,-99.99,,,0.01,weatherlink.com 1.10,2013-03-07 07:35:00,
2013-03-07 02:50:00,37.3,28.0,30.09,NNW,346,5.0,-999.0,70,-99.99,,,0.02,weatherlink.com 1.10,2013-03-07 07:50:00,
2013-03-07 03:05:00,38.0,29.0,30.09,NNW,329,5.0,-999.0,70,-99.99,,,0.02,weatherlink.com 1.10,2013-03-07 08:05:00,
2013-03-07 03:20:00,37.5,29.0,30.09,NNW,329,0.0,-999.0,70,-99.99,,,0.02,weatherlink.com 1.10,2013-03-07 08:20:00,
2013-03-07 03:35:00,37.0,29.0,30.09,NNE,17,2.0,-999.0,74,-99.99,,,0.02,weatherlink.com 1.10,2013-03-07 08:35:00,
2013-03-07 03:50:00,37.0,29.0,30.09,NNE,17,0.0,-999.0,72,-99.99,,,0.02,weatherlink.com 1.10,2013-03-07 08:50:00,
2013-03-07 04:05:00,37.0,29.0,30.09,NNE,17,0.0,-999.0,73,-99.99,,,0.02,weatherlink.com 1.10,2013-03-07 09:05:00,
2013-03-07 04:20:00,36.6,30.0,30.10,NNE,17,0.0,-999.0,76,-99.99,,,0.02,weatherlink.com 1.10,2013-03-07 09:20:00,
2013-03-07 04:35:00,36.8,29.0,30.10,NNE,22,3.0,-999.0,74,-99.99,,,0.02,weatherlink.com 1.10,2013-03-07 09:35:00,
2013-03-07 04:50:00,37.8,29.0,30.11,North,355,4.0,-999.0,71,-99.99,,,0.02,weatherlink.com 1.10,2013-03-07 09:50:00,
2013-03-07 05:05:00,38.0,29.0,30.12,North,351,1.0,-999.0,70,-99.99,,,0.02,weatherlink.com 1.10,2013-03-07 10:05:00,
2013-03-07 05:20:00,38.3,29.0,30.12,NNW,342,8.0,-999.0,70,-99.99,,,0.02,weatherlink.com 1.10,2013-03-07 10:20:00,
2013-03-07 05:35:00,38.4,29.0,30.13,NNW,348,11.0,-999.0,69,-99.99,,,0.02,weatherlink.com 1.10,2013-03-07 10:35:00,
2013-03-07 05:53:00,38.5,29.0,30.13,North,360,8.0,-999.0,68,-99.99,,,0.03,weatherlink.com 1.10,2013-03-07 10:53:00,
2013-03-07 06:05:00,38.6,29.0,30.13,North,355,7.0,-999.0,68,-99.99,,,0.03,weatherlink.com 1.10,2013-03-07 11:05:00,
2013-03-07 06:20:00,38.2,29.0,30.13,North,355,8.0,-999.0,69,-99.99,,,0.03,weatherlink.com 1.10,2013-03-07 11:20:00,
2013-03-07 06:35:00,38.0,29.0,30.13,North,10,3.0,-999.0,70,-99.99,,,0.03,weatherlink.com 1.10,2013-03-07 11:35:00,
2013-03-07 06:50:00,37.9,29.0,30.14,North,5,0.0,-999.0,70,-99.99,,,0.03,weatherlink.com 1.10,2013-03-07 11:50:00,
2013-03-07 07:05:00,37.7,29.0,30.14,North,5,2.0,-999.0,70,-99.99,,,0.03,weatherlink.com 1.10,2013-03-07 12:05:00,
2013-03-07 07:20:00,37.6,29.0,30.15,North,5,0.0,-999.0,71,-99.99,,,0.03,weatherlink.com 1.10,2013-03-07 12:20:00,
2013-03-07 07:35:00,38.0,29.0,30.16,NNW,335,10.0,-999.0,70,-99.99,,,0.03,weatherlink.com 1.10,2013-03-07 12:35:00,
2013-03-07 07:50:00,38.3,29.0,30.16,NNE,19,9.0,-999.0,70,-99.99,,,0.04,weatherlink.com 1.10,2013-03-07 12:50:00,
2013-03-07 08:05:00,38.6,30.0,30.16,NNW,333,9.0,-999.0,70,-99.99,,,0.04,weatherlink.com 1.10,2013-03-07 13:05:00,
2013-03-07 08:20:00,38.7,29.0,30.17,NNW,342,13.0,-999.0,69,-99.99,,,0.04,weatherlink.com 1.10,2013-03-07 13:20:00,
2013-03-07 08:35:00,38.8,29.0,30.18,NW,313,9.0,-999.0,69,-99.99,,,0.05,weatherlink.com 1.10,2013-03-07 13:35:00,
2013-03-07 08:50:00,38.6,29.0,30.19,NNW,338,12.0,-999.0,69,-99.99,,,0.05,weatherlink.com 1.10,2013-03-07 13:50:00,
2013-03-07 09:05:00,38.7,29.0,30.20,NNW,341,9.0,-999.0,69,-99.99,,,0.05,weatherlink.com 1.10,2013-03-07 14:05:00,
2013-03-07 09:20:00,38.8,29.0,30.20,NNW,328,11.0,-999.0,67,-99.99,,,0.06,weatherlink.com 1.10,2013-03-07 14:20:00,
2013-03-07 09:50:00,38.5,29.0,30.21,NW,325,13.0,-999.0,69,-99.99,,,0.06,weatherlink.com 1.10,2013-03-07 14:50:00,
2013-03-07 10:05:00,38.3,29.0,30.21,NW,325,8.0,-999.0,70,-99.99,,,0.07,weatherlink.com 1.10,2013-03-07 15:05:00,
2013-03-07 10:20:00,38.5,29.0,30.21,NW,309,7.0,-999.0,70,-99.99,,,0.07,weatherlink.com 1.10,2013-03-07 15:20:00,
2013-03-07 10:35:00,38.9,29.0,30.20,WNW,303,9.0,-999.0,67,-99.99,,,0.07,weatherlink.com 1.10,2013-03-07 15:35:00,
2013-03-07 10:50:00,39.3,29.0,30.20,WNW,287,11.0,-999.0,67,-99.99,,,0.07,weatherlink.com 1.10,2013-03-07 15:50:00,
2013-03-07 11:05:00,39.1,29.0,30.20,WNW,288,12.0,-999.0,66,-99.99,,,0.07,weatherlink.com 1.10,2013-03-07 16:05:00,
2013-03-07 11:20:00,39.5,28.0,30.20,NW,308,12.0,-999.0,64,-99.99,,,0.08,weatherlink.com 1.10,2013-03-07 16:20:00,
2013-03-07 11:35:00,39.8,28.0,30.20,NNW,333,19.0,-999.0,63,-99.99,,,0.08,weatherlink.com 1.10,2013-03-07 16:35:00,
2013-03-07 11:50:00,39.7,28.0,30.21,NNW,341,15.0,-999.0,63,-99.99,,,0.08,weatherlink.com 1.10,2013-03-07 16:50:00,
2013-03-07 12:05:00,39.8,28.0,30.20,NNW,347,15.0,-999.0,63,-99.99,,,0.08,weatherlink.com 1.10,2013-03-07 17:05:00,
2013-03-07 12:20:00,39.9,28.0,30.21,North,355,15.0,-999.0,62,-99.99,,,0.08,weatherlink.com 1.10,2013-03-07 17:20:00,
2013-03-07 12:35:00,39.8,28.0,30.20,NNW,331,13.0,-999.0,63,-99.99,,,0.08,weatherlink.com 1.10,2013-03-07 17:35:00,
2013-03-07 12:50:00,39.6,28.0,30.20,North,351,14.0,-999.0,64,-99.99,,,0.08,weatherlink.com 1.10,2013-03-07 17:50:00,
2013-03-07 13:05:00,39.5,29.0,30.20,NNW,348,8.0,-999.0,66,-99.99,,,0.08,weatherlink.com 1.10,2013-03-07 18:05:00,
2013-03-07 13:20:00,39.4,29.0,30.20,NNW,344,15.0,-999.0,67,-99.99,,,0.08,weatherlink.com 1.10,2013-03-07 18:20:00,
2013-03-07 13:35:00,39.3,29.0,30.19,North,350,10.0,-999.0,67,-99.99,,,0.08,weatherlink.com 1.10,2013-03-07 18:35:00,
2013-03-07 13:50:00,39.5,29.0,30.19,North,351,14.0,-999.0,65,-99.99,,,0.08,weatherlink.com 1.10,2013-03-07 18:50:00,
2013-03-07 14:05:00,39.5,29.0,30.19,NNW,336,12.0,-999.0,65,-99.99,,,0.08,weatherlink.com 1.10,2013-03-07 19:05:00,
2013-03-07 14:20:00,39.6,28.0,30.18,North,5,11.0,-999.0,63,-99.99,,,0.08,weatherlink.com 1.10,2013-03-07 19:20:00,
2013-03-07 14:35:00,39.9,27.0,30.19,NNW,333,12.0,-999.0,61,-99.99,,,0.08,weatherlink.com 1.10,2013-03-07 19:35:00,
2013-03-07 14:50:00,40.1,27.0,30.18,NNW,337,12.0,-999.0,61,-99.99,,,0.08,weatherlink.com 1.10,2013-03-07 19:50:00,
2013-03-07 15:05:00,39.9,28.0,30.19,NNW,334,13.0,-999.0,62,-99.99,,,0.08,weatherlink.com 1.10,2013-03-07 20:05:00,
2013-03-07 15:20:00,40.2,27.0,30.19,NNW,335,22.0,-999.0,60,-99.99,,,0.08,weatherlink.com 1.10,2013-03-07 20:20:00,
2013-03-07 15:35:00,39.5,28.0,30.19,North,5,13.0,-999.0,64,-99.99,,,0.08,weatherlink.com 1.10,2013-03-07 20:35:00,
2013-03-07 16:05:00,39.7,29.0,30.19,NNW,331,11.0,-999.0,65,-99.99,,,0.08,weatherlink.com 1.10,2013-03-07 21:05:00,
2013-03-07 16:20:00,39.9,28.0,30.19,NNW,336,17.0,-999.0,62,-99.99,,,0.08,weatherlink.com 1.10,2013-03-07 21:20:00,
2013-03-07 16:50:00,40.0,29.0,30.20,NNW,336,13.0,-999.0,64,-99.99,,,0.08,weatherlink.com 1.10,2013-03-07 21:50:00,
2013-03-07 17:05:00,39.7,28.0,30.20,NW,323,9.0,-999.0,64,-99.99,,,0.08,weatherlink.com 1.10,2013-03-07 22:05:00,
2013-03-07 17:20:00,39.5,28.0,30.21,NW,319,10.0,-999.0,64,-99.99,,,0.08,weatherlink.com 1.10,2013-03-07 22:20:00,
2013-03-07 17:35:00,39.3,28.0,30.21,NW,309,7.0,-999.0,65,-99.99,,,0.08,weatherlink.com 1.10,2013-03-07 22:35:00,
2013-03-07 17:50:00,38.9,28.0,30.21,NNW,342,2.0,-999.0,66,-99.99,,,0.08,weatherlink.com 1.10,2013-03-07 22:50:00,
2013-03-07 18:05:00,38.8,28.0,30.23,NNW,345,2.0,-999.0,66,-99.99,,,0.08,weatherlink.com 1.10,2013-03-07 23:05:00,
2013-03-07 18:20:00,38.7,28.0,30.23,NNW,340,9.0,-999.0,65,-99.99,,,0.08,weatherlink.com 1.10,2013-03-07 23:20:00,
2013-03-07 18:35:00,38.7,28.0,30.23,NNW,336,5.0,-999.0,65,-99.99,,,0.08,weatherlink.com 1.10,2013-03-07 23:35:00,
2013-03-07 18:50:00,38.8,28.0,30.23,NW,321,5.0,-999.0,65,-99.99,,,0.08,weatherlink.com 1.10,2013-03-07 23:50:00,
2013-03-07 19:05:00,38.4,27.0,30.23,North,5,0.0,-999.0,65,-99.99,,,0.08,weatherlink.com 1.10,2013-03-08 00:05:00,
2013-03-07 19:20:00,38.0,27.0,30.23,ENE,65,2.0,-999.0,66,-99.99,,,0.08,weatherlink.com 1.10,2013-03-08 00:20:00,
2013-03-07 19:35:00,37.3,27.0,30.24,ENE,65,0.0,-999.0,67,-99.99,,,0.08,weatherlink.com 1.10,2013-03-08 00:35:00,
2013-03-07 19:50:00,37.2,27.0,30.24,ENE,65,3.0,-999.0,67,-99.99,,,0.08,weatherlink.com 1.10,2013-03-08 00:50:00,
2013-03-07 20:05:00,37.4,28.0,30.24,ENE,65,4.0,-999.0,68,-99.99,,,0.08,weatherlink.com 1.10,2013-03-08 01:05:00,
2013-03-07 20:20:00,36.6,28.0,30.24,East,79,3.0,-999.0,70,-99.99,,,0.08,weatherlink.com 1.10,2013-03-08 01:20:00,
2013-03-07 20:35:00,36.3,27.0,30.24,East,80,2.0,-999.0,70,-99.99,,,0.08,weatherlink.com 1.10,2013-03-08 01:35:00,
2013-03-07 20:50:00,36.3,27.0,30.24,East,80,0.0,-999.0,70,-99.99,,,0.08,weatherlink.com 1.10,2013-03-08 01:50:00,
2013-03-07 21:20:00,35.0,27.0,30.24,NW,315,6.0,-999.0,73,-99.99,,,0.08,weatherlink.com 1.10,2013-03-08 02:20:00,
2013-03-07 21:35:00,36.3,27.0,30.24,NNW,329,9.0,-999.0,70,-99.99,,,0.08,weatherlink.com 1.10,2013-03-08 02:35:00,
2013-03-07 21:50:00,36.5,27.0,30.24,NW,325,8.0,-999.0,69,-99.99,,,0.08,weatherlink.com 1.10,2013-03-08 02:50:00,
2013-03-07 22:05:00,36.4,27.0,30.24,NW,323,7.0,-999.0,70,-99.99,,,0.08,weatherlink.com 1.10,2013-03-08 03:05:00,
2013-03-07 22:20:00,36.4,27.0,30.24,NNW,327,5.0,-999.0,70,-99.99,,,0.08,weatherlink.com 1.10,2013-03-08 03:20:00,
2013-03-07 22:35:00,36.0,27.0,30.24,NW,326,2.0,-999.0,71,-99.99,,,0.08,weatherlink.com 1.10,2013-03-08 03:35:00,
2013-03-07 22:50:00,35.2,27.0,30.24,NW,326,6.0,-999.0,72,-99.99,,,0.08,weatherlink.com 1.10,2013-03-08 03:50:00,
2013-03-07 23:05:00,34.8,27.0,30.24,NNW,331,2.0,-999.0,72,-99.99,,,0.08,weatherlink.com 1.10,2013-03-08 04:05:00,
2013-03-07 23:20:00,34.2,27.0,30.24,NNW,331,0.0,-999.0,74,-99.99,,,0.08,weatherlink.com 1.10,2013-03-08 04:20:00,
2013-03-07 23:35:00,34.3,27.0,30.24,NNW,331,0.0,-999.0,75,-99.99,,,0.08,weatherlink.com 1.10,2013-03-08 04:35:00,
2013-03-07 23:50:00,34.4,28.0,30.24,NNW,331,4.0,-999.0,76,-99.99,,,0.08,weatherlink.com 1.10,2013-03-08 04:50:00,